Time;durP1;ratioP1;P1;durP2;ratioP2;P2;SDS_P1;SDS_P2;PMS_P1;PMS_P2;Temp;Humidity;BMP_temperature;BMP_pressure;BME280_temperature;BME280_humidity;BME280_pressure;Samples;Min_cycle;Max_cycle;Signal;HPM_P1;HPM_P2
2023/10/23 00:01:50;;;;;;;;;0.00;0.00;;;;;11.43;100.00;100862.91;6369005;22;45224;-85
2023/10/23 00:04:18;;;;;;;;;0.00;0.00;;;;;11.38;100.00;100856.97;6340113;22;46067;-84
2023/10/23 00:06:46;;;;;;;;;0.00;0.00;;;;;11.39;100.00;100855.25;6366682;22;45657;-84
2023/10/23 00:09:20;;;;;;;;;0.00;0.00;;;;;11.35;100.00;100849.28;6368725;22;45246;-84
2023/10/23 00:11:46;;;;;;;;;0.00;0.00;;;;;11.33;100.00;100839.78;6367218;22;45632;-84
2023/10/23 00:14:11;;;;;;;;;0.00;0.00;;;;;11.33;100.00;100845.88;6366987;22;46058;-84
2023/10/23 00:16:37;;;;;;;;;0.00;0.00;;;;;11.36;100.00;100852.72;6368350;22;46061;-84
2023/10/23 00:19:02;;;;;;;;;0.00;0.00;;;;;11.33;100.00;100845.00;6340439;22;45413;-84
2023/10/23 00:21:27;;;;;;;;;0.00;0.00;;;;;11.31;100.00;100845.06;6367061;22;45469;-84
2023/10/23 00:23:58;;;;;;;;;0.00;0.00;;;;;11.30;100.00;100852.91;6368561;22;45307;-85
2023/10/23 00:26:24;;;;;;;;;7.00;7.00;;;;;11.29;100.00;100846.88;6366306;22;45420;-85
2023/10/23 00:28:52;;;;;;;;;0.00;0.00;;;;;11.25;100.00;100837.41;6368155;22;45354;-84
2023/10/23 00:31:19;;;;;;;;;0.00;0.00;;;;;11.22;100.00;100834.91;6367045;22;45245;-84
2023/10/23 00:33:50;;;;;;;;;0.00;0.00;;;;;11.23;100.00;100842.66;6368117;22;45321;-84
2023/10/23 00:36:17;;;;;;;;;0.00;0.00;;;;;11.23;100.00;100831.38;6393348;22;45520;-84
2023/10/23 00:38:45;;;;;;;;;0.00;0.00;;;;;11.21;100.00;100827.97;6367144;22;45332;-85
2023/10/23 00:41:12;;;;;;;;;0.00;0.00;;;;;11.20;100.00;100828.91;6366588;22;45400;-85
2023/10/23 00:43:38;;;;;;;;;0.00;0.00;;;;;11.19;100.00;100825.41;6393319;22;47212;-85
2023/10/23 00:46:11;;;;;;;;;0.00;0.00;;;;;11.19;100.00;100825.41;6368228;22;45302;-84
2023/10/23 00:48:38;;;;;;;;;0.00;0.00;;;;;11.16;100.00;100822.06;6366788;22;45318;-84
2023/10/23 00:51:04;;;;;;;;;0.00;0.00;;;;;11.19;100.00;100814.16;6366850;22;45733;-84
2023/10/23 00:53:35;;;;;;;;;1.00;1.00;;;;;11.19;100.00;100812.38;6368618;22;45402;-84
2023/10/23 00:56:04;;;;;;;;;0.00;0.00;;;;;11.14;100.00;100814.28;6366384;22;45452;-84
2023/10/23 00:58:33;;;;;;;;;0.00;0.00;;;;;11.13;100.00;100816.94;6368008;22;45315;-85
2023/10/23 01:01:03;;;;;;;;;0.00;0.00;;;;;11.08;100.00;100814.47;6366715;22;45328;-84
2023/10/23 01:03:31;;;;;;;;;0.00;0.00;;;;;11.08;100.00;100811.00;6366358;22;48229;-84
2023/10/23 01:05:57;;;;;;;;;0.00;0.00;;;;;11.08;100.00;100817.06;6367995;22;45324;-85
2023/10/23 01:08:23;;;;;;;;;0.00;0.00;;;;;11.09;100.00;100823.13;6367886;22;45347;-84
2023/10/23 01:10:48;;;;;;;;;0.00;0.00;;;;;11.02;100.00;100812.06;6366316;22;45357;-85
2023/10/23 01:13:24;;;;;;;;;0.00;0.00;;;;;11.03;100.00;100819.81;6366092;22;45327;-84
2023/10/23 01:15:52;;;;;;;;;0.00;0.00;;;;;10.98;100.00;100824.31;6366851;22;45205;-84
2023/10/23 01:18:17;;;;;;;;;0.00;0.00;;;;;11.01;100.00;100828.56;6366331;22;45419;-84
2023/10/23 01:20:45;;;;;;;;;0.00;0.00;;;;;10.99;100.00;100815.59;6366568;22;45468;-84
2023/10/23 01:23:11;;;;;;;;;0.00;0.00;;;;;10.96;100.00;100804.44;6366640;22;45491;-85
2023/10/23 01:25:37;;;;;;;;;0.00;0.00;;;;;10.98;100.00;100813.91;6366141;22;45652;-85
2023/10/23 01:28:02;;;;;;;;;0.00;0.00;;;;;10.97;100.00;100806.97;6368179;22;45339;-85
2023/10/23 01:30:28;;;;;;;;;0.00;0.00;;;;;10.92;100.00;100800.19;6368366;22;45291;-84
2023/10/23 01:32:54;;;;;;;;;13.00;13.00;;;;;10.88;100.00;100794.22;6367513;22;47141;-85
2023/10/23 01:35:19;;;;;;;;;0.00;0.00;;;;;10.87;100.00;100795.13;6392828;22;45388;-83
2023/10/23 01:37:45;;;;;;;;;0.00;0.00;;;;;10.88;100.00;100789.00;6339095;22;45386;-85
2023/10/23 01:40:11;;;;;;;;;0.00;0.00;;;;;10.84;100.00;100783.03;6367025;22;45299;-84
2023/10/23 01:42:39;;;;;;;;;0.00;0.00;;;;;10.88;100.00;100796.81;6365958;22;47835;-84
2023/10/23 01:45:07;;;;;;;;;0.00;0.00;;;;;10.85;100.00;100782.16;6368244;22;45306;-84
2023/10/23 01:47:42;;;;;;;;;;;;;;;;;;;;;
2023/10/23 01:50:08;;;;;;;;;0.00;0.00;;;;;10.78;100.00;100788.44;6361367;22;71180;-84
2023/10/23 01:52:37;;;;;;;;;0.00;0.00;;;;;10.74;100.00;100786.81;6367201;22;47108;-84
2023/10/23 01:55:03;;;;;;;;;0.00;0.00;;;;;10.77;100.00;100785.84;6365538;22;45367;-84
2023/10/23 01:57:28;;;;;;;;;0.00;0.00;;;;;10.71;100.00;100768.66;6367380;22;45213;-84
2023/10/23 02:00:03;;;;;;;;;0.00;0.00;;;;;10.73;100.00;100766.03;6367510;22;45571;-85
2023/10/23 02:02:28;;;;;;;;;0.00;0.00;;;;;10.66;100.00;100757.56;6365882;22;45334;-84
2023/10/23 02:04:56;;;;;;;;;0.00;0.00;;;;;10.70;100.00;100763.50;6366447;22;45219;-84
2023/10/23 02:07:29;;;;;;;;;0.00;0.00;;;;;10.68;100.00;100760.09;6367435;22;45314;-85
2023/10/23 02:09:58;;;;;;;;;0.00;0.00;;;;;10.65;100.00;100761.88;6365493;22;45525;-84
2023/10/23 02:12:23;;;;;;;;;0.00;0.00;;;;;10.61;100.00;100762.88;6365690;22;46282;-84
2023/10/23 02:14:52;;;;;;;;;0.00;0.00;;;;;10.58;100.00;100764.72;6367256;22;45288;-84
2023/10/23 02:17:18;;;;;;;;;0.00;0.00;;;;;10.60;100.00;100768.97;6367781;22;45272;-85
2023/10/23 02:19:43;;;;;;;;;0.00;0.00;;;;;10.55;100.00;100767.41;6366318;22;45211;-84
2023/10/23 02:22:11;;;;;;;;;0.00;0.00;;;;;10.55;100.00;100767.41;6367054;22;46194;-84
2023/10/23 02:24:36;;;;;;;;;0.00;0.00;;;;;10.53;100.00;100764.88;6366654;22;45324;-85
2023/10/23 02:27:04;;;;;;;;;0.00;0.00;;;;;10.51;100.00;100764.06;6367852;22;45780;-85
2023/10/23 02:29:29;;;;;;;;;0.00;0.00;;;;;10.50;100.00;100761.50;6367980;22;45391;-85
2023/10/23 02:31:55;;;;;;;;;0.00;0.00;;;;;10.45;100.00;100751.19;6365602;22;46872;-85
2023/10/23 02:34:23;;;;;;;;;0.00;0.00;;;;;10.48;100.00;100756.31;6367131;22;45292;-84
2023/10/23 02:36:55;;;;;;;;;0.00;0.00;;;;;10.45;100.00;100749.44;6366010;22;45352;-84
2023/10/23 02:39:24;;;;;;;;;0.00;0.00;;;;;10.43;100.00;100742.59;6366722;22;45171;-84
2023/10/23 02:41:51;;;;;;;;;0.00;0.00;;;;;10.42;100.00;100744.34;6365410;22;45964;-84
2023/10/23 02:44:19;;;;;;;;;0.00;0.00;;;;;10.42;100.00;100741.75;6365451;22;45238;-84
2023/10/23 02:46:47;;;;;;;;;0.00;0.00;;;;;10.43;100.00;100746.03;6367055;22;45263;-84
2023/10/23 02:49:18;;;;;;;;;0.00;0.00;;;;;10.40;100.00;100740.06;6365464;22;45274;-85
2023/10/23 02:51:45;;;;;;;;;0.00;0.00;;;;;10.40;100.00;100747.88;6368377;22;47195;-85
2023/10/23 02:54:13;;;;;;;;;0.00;0.00;;;;;10.37;100.00;100740.16;6340378;22;45123;-84
2023/10/23 02:56:41;;;;;;;;;0.00;0.00;;;;;10.36;100.00;100744.50;6367416;22;45259;-85
2023/10/23 02:59:08;;;;;;;;;0.00;0.00;;;;;10.34;100.00;100738.47;6368715;22;45320;-84
2023/10/23 03:01:36;;;;;;;;;0.00;0.00;;;;;10.33;100.00;100738.56;6368756;22;46037;-85
2023/10/23 03:04:04;;;;;;;;;0.00;0.00;;;;;10.31;100.00;100743.78;6366652;22;45405;-84
2023/10/23 03:06:29;;;;;;;;;0.00;0.00;;;;;10.28;100.00;100736.88;6393766;22;45450;-84
2023/10/23 03:08:55;;;;;;;;;0.00;0.00;;;;;10.28;100.00;100734.28;6368153;22;45440;-84
2023/10/23 03:11:20;;;;;;;;;0.00;0.00;;;;;10.27;100.00;100742.13;6339987;22;47300;-84
2023/10/23 03:13:48;;;;;;;;;0.00;0.00;;;;;10.23;100.00;100730.97;6368276;22;45322;-84
2023/10/23 03:16:14;;;;;;;;;0.00;0.00;;;;;10.23;100.00;100728.38;6368289;22;45213;-84
2023/10/23 03:18:42;;;;;;;;;0.00;0.00;;;;;10.22;100.00;100731.00;6368661;22;45285;-85
2023/10/23 03:21:10;;;;;;;;;0.00;0.00;;;;;10.20;100.00;100727.59;6366549;22;46052;-85
2023/10/23 03:23:38;;;;;;;;;0.00;0.00;;;;;10.21;100.00;100730.13;6368239;22;45315;-85
2023/10/23 03:26:06;;;;;;;;;0.00;0.00;;;;;10.16;100.00;100721.63;6368893;22;45306;-83
2023/10/23 03:28:31;;;;;;;;;0.00;0.00;;;;;10.15;100.00;100711.25;6368387;22;45400;-84
2023/10/23 03:31:04;;;;;;;;;0.00;0.00;;;;;10.19;100.00;100718.06;6368750;22;45439;-85
2023/10/23 03:33:32;;;;;;;;;0.00;0.00;;;;;10.12;100.00;100706.97;6368251;22;45195;-84
2023/10/23 03:35:57;;;;;;;;;0.00;0.00;;;;;10.12;100.00;100709.56;6367948;22;45299;-84
2023/10/23 03:38:25;;;;;;;;;0.00;0.00;;;;;10.11;100.00;100704.44;6368792;22;45336;-84
2023/10/23 03:40:58;;;;;;;;;0.00;0.00;;;;;10.12;100.00;100708.72;6368799;22;45494;-84
2023/10/23 03:43:24;;;;;;;;;0.00;0.00;;;;;10.08;100.00;100707.94;6366794;22;45301;-84
2023/10/23 03:45:55;;;;;;;;;0.00;0.00;;;;;10.06;100.00;100707.16;6368841;22;45280;-84
2023/10/23 03:48:20;;;;;;;;;0.00;0.00;;;;;10.02;100.00;100695.13;6393325;22;45381;-84
2023/10/23 03:50:48;;;;;;;;;0.00;0.00;;;;;10.03;100.00;100696.84;6392627;22;46943;-84
2023/10/23 03:53:13;;;;;;;;;0.00;0.00;;;;;10.00;100.00;100695.16;6368074;22;45312;-84
2023/10/23 03:55:41;;;;;;;;;0.00;0.00;;;;;10.06;100.00;100702.78;6368829;22;45260;-85
2023/10/23 03:58:06;;;;;;;;;0.00;0.00;;;;;10.04;100.00;100698.53;6366590;22;45461;-85
2023/10/23 04:00:32;;;;;;;;;0.00;0.00;;;;;10.03;100.00;100689.88;6366567;22;47082;-85
2023/10/23 04:02:58;;;;;;;;;0.00;0.00;;;;;10.00;100.00;100682.16;6367911;22;45300;-85
2023/10/23 04:05:23;;;;;;;;;0.00;0.00;;;;;9.97;100.00;100669.22;6368162;22;45496;-84
2023/10/23 04:07:51;;;;;;;;;0.00;0.00;;;;;9.97;100.00;100671.00;6368201;22;45377;-84
2023/10/23 04:10:17;;;;;;;;;0.00;0.00;;;;;10.00;100.00;100670.91;6367099;22;48034;-84
2023/10/23 04:12:42;;;;;;;;;0.00;0.00;;;;;10.02;100.00;100674.31;6393128;22;45295;-84
2023/10/23 04:15:08;;;;;;;;;0.00;0.00;;;;;10.00;100.00;100663.97;6366809;22;45651;-85
2023/10/23 04:17:33;;;;;;;;;0.00;0.00;;;;;9.99;100.00;100662.28;6340058;22;45341;-84
2023/10/23 04:19:59;;;;;;;;;0.00;0.00;;;;;9.99;100.00;100657.06;6366053;22;46735;-85
2023/10/23 04:22:25;;;;;;;;;0.00;0.00;;;;;10.03;100.00;100657.84;6368029;22;45264;-85
2023/10/23 04:24:53;;;;;;;;;0.00;0.00;;;;;10.05;100.00;100667.28;6368293;22;45227;-85
2023/10/23 04:27:19;;;;;;;;;0.00;0.00;;;;;10.07;100.00;100662.91;6366708;22;45244;-84
2023/10/23 04:29:47;;;;;;;;;0.00;0.00;;;;;10.05;100.00;100650.84;6366416;22;45627;-85
2023/10/23 04:32:12;;;;;;;;;0.00;0.00;;;;;10.12;100.00;100665.34;6366606;22;45368;-85
2023/10/23 04:34:40;;;;;;;;;0.00;0.00;;;;;10.06;100.00;100653.38;6366995;22;45344;-84
2023/10/23 04:37:07;;;;;;;;;0.00;0.00;;;;;10.11;100.00;100657.63;6366525;22;45336;-85
2023/10/23 04:39:35;;;;;;;;;0.00;0.00;;;;;10.12;100.00;100657.53;6366637;22;46234;-84
2023/10/23 04:42:01;;;;;;;;;0.00;0.00;;;;;10.15;100.00;100659.22;6366336;22;45261;-83
2023/10/23 04:44:27;;;;;;;;;7.00;7.00;;;;;10.11;100.00;100650.66;6366892;22;45386;-84
2023/10/23 04:46:52;;;;;;;;;0.00;0.00;;;;;10.08;100.00;100641.22;6368247;22;45389;-85
2023/10/23 04:49:17;;;;;;;;;0.00;0.00;;;;;10.10;100.00;100643.75;6366099;22;52406;-84
2023/10/23 04:51:43;;;;;;;;;0.00;0.00;;;;;10.14;100.00;100649.72;6340063;22;45282;-85
2023/10/23 04:54:10;;;;;;;;;0.00;0.00;;;;;10.12;100.00;100643.69;6366456;22;45398;-85
2023/10/23 04:56:44;;;;;;;;;0.00;0.00;;;;;10.13;100.00;100648.03;6368678;22;45256;-85
2023/10/23 04:59:09;;;;;;;;;0.00;0.00;;;;;10.08;100.00;100640.34;6366309;22;47198;-85
2023/10/23 05:01:35;;;;;;;;;0.00;0.00;;;;;10.07;100.00;100633.44;6368300;22;45361;-84
2023/10/23 05:04:00;;;;;;;;;0.00;0.00;;;;;10.05;100.00;100625.69;6366562;22;45281;-84
2023/10/23 05:06:26;;;;;;;;;0.00;0.00;;;;;10.07;100.00;100636.88;6366478;22;45446;-84
2023/10/23 05:08:52;;;;;;;;;0.00;0.00;;;;;10.02;100.00;100617.13;6366403;22;47861;-84
2023/10/23 05:11:17;;;;;;;;;0.00;0.00;;;;;10.02;100.00;100617.13;6367947;22;45370;-84
2023/10/23 05:13:45;;;;;;;;;0.00;0.00;;;;;10.01;100.00;100611.06;6367187;22;45154;-84
2023/10/23 05:16:12;;;;;;;;;0.00;0.00;;;;;10.03;100.00;100614.47;6367960;22;45403;-84
2023/10/23 05:18:38;;;;;;;;;0.00;0.00;;;;;10.02;100.00;100602.34;6367306;22;47097;-84
2023/10/23 05:21:09;;;;;;;;;0.00;0.00;;;;;10.07;100.00;100607.44;6368310;22;45315;-84
2023/10/23 05:23:35;;;;;;;;;0.00;0.00;;;;;10.04;100.00;100602.31;6339802;22;45290;-84
2023/10/23 05:26:02;;;;;;;;;0.00;0.00;;;;;10.07;100.00;100597.88;6367081;22;45274;-84
2023/10/23 05:28:33;;;;;;;;;0.00;0.00;;;;;10.07;100.00;100597.03;6367732;22;46843;-85
2023/10/23 05:31:00;;;;;;;;;0.00;0.00;;;;;10.05;100.00;100594.47;6367975;22;45382;-84
2023/10/23 05:33:26;;;;;;;;;0.00;0.00;;;;;10.07;100.00;100597.03;6366454;22;45285;-85
2023/10/23 05:36:04;;;;;;;;;0.00;0.00;;;;;10.04;100.00;100587.56;6367878;22;45442;-84
2023/10/23 05:38:31;;;;;;;;;0.00;0.00;;;;;10.08;100.00;100586.59;6367665;22;46006;-84
2023/10/23 05:40:57;;;;;;;;;0.00;0.00;;;;;10.09;100.00;100579.63;6366230;22;45340;-85
2023/10/23 05:43:23;;;;;;;;;0.00;0.00;;;;;10.12;100.00;100587.31;6368566;22;45539;-85
2023/10/23 05:45:49;;;;;;;;;0.00;0.00;;;;;10.12;100.00;100576.06;6367988;22;45467;-84
2023/10/23 05:48:14;;;;;;;;;0.00;0.00;;;;;10.15;100.00;100583.81;6365435;22;47068;-84
2023/10/23 05:50:40;;;;;;;;;0.00;0.00;;;;;10.10;100.00;100564.88;6367582;22;45561;-84
2023/10/23 05:53:05;;;;;;;;;0.00;0.00;;;;;10.15;100.00;100570.78;6339649;22;45287;-84
2023/10/23 05:55:34;;;;;;;;;0.00;0.00;;;;;10.19;100.00;100578.44;6339553;22;45630;-84
2023/10/23 05:58:02;;;;;;;;;0.00;0.00;;;;;10.14;100.00;100562.16;6365798;22;47612;-84
2023/10/23 06:00:28;;;;;;;;;0.00;0.00;;;;;10.19;100.00;100565.44;6366092;22;45191;-84
2023/10/23 06:02:54;;;;;;;;;0.00;0.00;;;;;10.24;100.00;100571.38;6365619;22;45445;-84
2023/10/23 06:05:19;;;;;;;;;0.00;0.00;;;;;10.21;100.00;100560.19;6368066;22;45247;-85
2023/10/23 06:07:47;;;;;;;;;0.00;0.00;;;;;10.21;100.00;100555.00;6365663;22;47185;-84
2023/10/23 06:10:14;;;;;;;;;0.00;0.00;;;;;10.19;100.00;100551.59;6367593;22;45322;-84
2023/10/23 06:12:44;;;;;;;;;0.00;0.00;;;;;10.23;100.00;100558.41;6393160;22;45805;-84
2023/10/23 06:15:12;;;;;;;;;0.00;0.00;;;;;10.25;100.00;100560.06;6366885;22;45450;-84
2023/10/23 06:17:37;;;;;;;;;0.00;0.00;;;;;10.23;100.00;100555.78;6366017;22;46098;-85
2023/10/23 06:20:03;;;;;;;;;0.00;0.00;;;;;10.25;100.00;100552.28;6366012;22;45295;-84
2023/10/23 06:22:29;;;;;;;;;0.00;0.00;;;;;10.28;100.00;100553.91;6367751;22;45264;-85
2023/10/23 06:24:54;;;;;;;;;0.00;0.00;;;;;10.32;100.00;100544.31;6366371;22;45417;-86
2023/10/23 06:27:23;;;;;;;;;0.00;0.00;;;;;10.31;100.00;100542.59;6368700;22;46898;-85
2023/10/23 06:29:49;;;;;;;;;0.00;0.00;;;;;10.32;100.00;100539.09;6367165;22;45247;-85
2023/10/23 06:32:17;;;;;;;;;0.00;0.00;;;;;10.32;100.00;100539.09;6369093;22;45222;-84
2023/10/23 06:34:53;;;;;;;;;;;;;;;;;;;;;
2023/10/23 06:37:21;;;;;;;;;0.00;0.00;;;;;10.36;100.00;100543.28;6360837;22;73982;-83
2023/10/23 06:39:46;;;;;;;;;0.00;0.00;;;;;10.37;100.00;100547.63;6368912;22;45419;-84
2023/10/23 06:42:12;;;;;;;;;0.00;0.00;;;;;10.43;100.00;100550.88;6369508;22;45345;-85
2023/10/23 06:44:37;;;;;;;;;0.00;0.00;;;;;10.45;100.00;100548.22;6367221;22;45264;-84
2023/10/23 06:47:10;;;;;;;;;0.00;0.00;;;;;10.42;100.00;100535.31;6366819;22;46191;-85
2023/10/23 06:49:37;;;;;;;;;0.00;0.00;;;;;10.44;100.00;100523.97;6368649;22;45492;-85
2023/10/23 06:52:04;;;;;;;;;0.00;0.00;;;;;10.53;100.00;100537.56;6368952;22;45456;-85
2023/10/23 06:54:29;;;;;;;;;0.00;0.00;;;;;10.53;100.00;100524.53;6369329;22;45378;-85
2023/10/23 06:56:57;;;;;;;;;0.00;0.00;;;;;10.54;100.00;100521.91;6368886;22;45321;-84
2023/10/23 06:59:22;;;;;;;;;0.00;0.00;;;;;10.57;100.00;100515.75;6367066;22;45344;-84
2023/10/23 07:01:48;;;;;;;;;0.00;0.00;;;;;10.63;100.00;100523.38;6367221;22;45374;-85
2023/10/23 07:04:15;;;;;;;;;1.00;1.00;;;;;10.61;100.00;100520.81;6369213;22;45403;-85
2023/10/23 07:06:40;;;;;;;;;0.00;0.00;;;;;10.61;100.00;100523.41;6368548;22;46260;-84
2023/10/23 07:09:09;;;;;;;;;1.00;1.00;;;;;10.69;100.00;100525.75;6368306;22;64180;-84
2023/10/23 07:11:34;;;;;;;;;0.00;0.00;;;;;10.70;100.00;100529.19;6368196;22;45240;-85
2023/10/23 07:14:00;;;;;;;;;0.00;0.00;;;;;10.72;100.00;100527.44;6366565;22;45289;-85
2023/10/23 07:16:25;;;;;;;;;0.00;0.00;;;;;10.76;100.00;100529.03;6368210;22;46073;-85
2023/10/23 07:18:53;;;;;;;;;0.00;0.00;;;;;10.77;100.00;100518.56;6368705;22;45243;-85
2023/10/23 07:21:21;;;;;;;;;0.00;0.00;;;;;10.87;100.00;100533.88;6367183;22;45375;-85
2023/10/23 07:23:47;;;;;;;;;0.00;0.00;;;;;10.89;100.00;100526.88;6367119;22;45497;-85
2023/10/23 07:26:17;;;;;;;;;0.00;0.00;;;;;10.94;100.00;100530.16;6366757;22;46901;-85
2023/10/23 07:28:46;;;;;;;;;0.00;0.00;;;;;11.00;100.00;100527.34;6367951;22;45367;-85
2023/10/23 07:31:21;;;;;;;;;0.00;0.00;;;;;11.04;100.00;100521.97;6367096;22;45313;-84
2023/10/23 07:33:50;;;;;;;;;0.00;0.00;;;;;11.08;100.00;100519.28;6366711;22;45481;-85
2023/10/23 07:36:25;;;;;;;;;0.00;0.00;;;;;11.11;100.00;100516.56;6368334;22;45310;-85
2023/10/23 07:38:53;;;;;;;;;0.00;0.00;;;;;11.12;100.00;100502.63;6366912;22;45256;-85
2023/10/23 07:41:18;;;;;;;;;0.00;0.00;;;;;11.17;100.00;100505.94;6367331;22;45351;-85
2023/10/23 07:43:44;;;;;;;;;0.00;0.00;;;;;11.19;100.00;100502.34;6367036;22;45473;-85
2023/10/23 07:46:10;;;;;;;;;0.00;0.00;;;;;11.28;100.00;100506.41;6366612;22;47101;-84
2023/10/23 07:48:36;;;;;;;;;0.00;0.00;;;;;11.27;100.00;100496.03;6368125;22;45288;-85
2023/10/23 07:51:04;;;;;;;;;0.00;0.00;;;;;11.33;100.00;100501.88;6367518;22;45324;-85
2023/10/23 07:53:33;;;;;;;;;0.00;0.00;;;;;11.34;100.00;100492.28;6367083;22;45294;-85
2023/10/23 07:55:59;;;;;;;;;0.00;0.00;;;;;11.35;100.00;100491.41;6368213;22;46739;-85
2023/10/23 07:58:25;;;;;;;;;0.00;0.00;;;;;11.43;100.00;100498.03;6366178;22;45239;-85
2023/10/23 08:00:53;;;;;;;;;0.00;0.00;;;;;11.48;100.00;100491.78;6367051;22;45396;-85
2023/10/23 08:03:19;;;;;;;;;0.00;0.00;;;;;11.52;100.00;100491.63;6369072;22;45414;-85
2023/10/23 08:05:45;;;;;;;;;0.00;0.00;;;;;11.53;100.00;100477.66;6366628;22;47051;-85
2023/10/23 08:08:13;;;;;;;;;0.00;0.00;;;;;11.58;100.00;100480.13;6368630;22;45300;-84
2023/10/23 08:10:38;;;;;;;;;0.00;0.00;;;;;11.66;100.00;100482.44;6368983;22;45246;-84
2023/10/23 08:13:06;;;;;;;;;0.00;0.00;;;;;11.64;100.00;100469.47;6366896;22;45430;-84
2023/10/23 08:15:31;;;;;;;;;0.00;0.00;;;;;11.70;100.00;100470.97;6366791;22;46666;-85
2023/10/23 08:18:09;;;;;;;;;;;;;;;;;;;;;
2023/10/23 08:20:38;;;;;;;;;0.00;0.00;;;;;11.76;100.00;100463.78;6359468;22;70003;-85
2023/10/23 08:23:03;;;;;;;;;0.00;0.00;;;;;11.75;100.00;100459.47;6368377;22;45431;-85
2023/10/23 08:25:31;;;;;;;;;0.00;0.00;;;;;11.78;100.00;100456.75;6366176;22;47978;-85
2023/10/23 08:27:56;;;;;;;;;0.00;0.00;;;;;11.82;100.00;100460.09;6366196;22;45312;-85
2023/10/23 08:30:21;;;;;;;;;0.00;0.00;;;;;11.82;100.00;100455.72;6340079;22;45342;-85
2023/10/23 08:32:47;;;;;;;;;0.00;0.00;;;;;11.85;100.00;100452.16;6367114;22;45334;-85
2023/10/23 08:35:12;;;;;;;;;0.00;0.00;;;;;11.88;100.00;100454.63;6368317;22;45834;-85
2023/10/23 08:37:37;;;;;;;;;0.00;0.00;;;;;11.92;100.00;100458.00;6368502;22;45272;-85
2023/10/23 08:40:06;;;;;;;;;0.00;0.00;;;;;11.98;100.00;100452.56;6366335;22;48882;-85
2023/10/23 08:42:34;;;;;;;;;0.00;0.00;;;;;12.04;100.00;100457.53;6368301;22;45436;-85
2023/10/23 08:45:02;;;;;;;;;0.00;0.00;;;;;12.11;100.00;100456.38;6366211;22;59848;-84
2023/10/23 08:47:28;;;;;;;;;0.00;0.00;;;;;12.17;100.00;100453.53;6369272;22;45182;-84
2023/10/23 08:49:56;;;;;;;;;0.00;0.00;;;;;12.18;100.00;100442.19;6367366;22;45282;-84
2023/10/23 08:52:23;;;;;;;;;0.00;0.00;;;;;12.22;100.00;100450.75;6366969;22;45479;-84
2023/10/23 08:54:52;;;;;;;;;0.00;0.00;;;;;12.29;100.00;100451.34;6368189;22;46284;-84
2023/10/23 08:57:21;;;;;;;;;0.00;0.00;;;;;12.29;100.00;100444.34;6339702;22;45349;-84
2023/10/23 08:59:46;;;;;;;;;0.00;0.00;;;;;12.33;100.00;100435.50;6368192;22;45155;-84
2023/10/23 09:02:14;;;;;;;;;0.00;0.00;;;;;12.35;100.00;100433.66;6368132;22;45236;-84
2023/10/23 09:04:47;;;;;;;;;0.00;0.00;;;;;12.34;100.00;100431.13;6368482;22;45355;-84
2023/10/23 09:07:12;;;;;;;;;0.00;0.00;;;;;12.37;100.00;100423.19;6367923;22;45415;-84
2023/10/23 09:09:38;;;;;;;;;0.00;0.00;;;;;12.39;100.00;100400.47;6366666;22;45282;-84
2023/10/23 09:12:04;;;;;;;;;0.00;0.00;;;;;12.46;100.00;100414.09;6368345;22;45350;-84
2023/10/23 09:14:35;;;;;;;;;0.00;0.00;;;;;12.49;100.00;100412.19;6367748;22;45361;-84
2023/10/23 09:17:03;;;;;;;;;0.00;0.00;;;;;12.52;100.00;100413.84;6366727;22;45284;-85
2023/10/23 09:19:36;;;;;;;;;0.00;0.00;;;;;12.50;100.00;100398.25;6368253;22;45297;-85
2023/10/23 09:22:12;;;;;;;;;1.00;1.00;;;;;12.56;100.00;100394.53;6366653;22;45258;-85
2023/10/23 09:24:38;;;;;;;;;0.00;0.00;;;;;12.58;100.00;100405.75;6367267;22;46113;-85
2023/10/23 09:27:03;;;;;;;;;0.00;0.00;;;;;12.59;100.00;100392.63;6366771;22;45340;-85
2023/10/23 09:29:29;;;;;;;;;0.00;0.00;;;;;12.58;100.00;100385.69;6368709;22;45314;-85
2023/10/23 09:31:57;;;;;;;;;0.00;0.00;;;;;12.69;100.00;100390.47;6367919;22;45378;-84
2023/10/23 09:34:30;;;;;;;;;0.00;0.00;;;;;12.73;100.00;100394.63;6367735;22;46191;-85
2023/10/23 09:36:55;;;;;;;;;0.00;0.00;;;;;12.72;100.00;100386.88;6368114;22;45388;-83
2023/10/23 09:39:22;;;;;;;;;0.00;0.00;;;;;12.74;100.00;100390.25;6367771;22;45272;-83
2023/10/23 09:41:48;;;;;;;;;0.00;0.00;;;;;12.76;100.00;100394.53;6367768;22;45256;-83
2023/10/23 09:44:16;;;;;;;;;0.00;0.00;;;;;12.77;100.00;100387.53;6365956;22;46528;-83
2023/10/23 09:46:42;;;;;;;;;0.00;0.00;;;;;12.74;100.00;100385.91;6368045;22;45304;-83
2023/10/23 09:49:09;;;;;;;;;0.00;0.00;;;;;12.75;100.00;100377.13;6367830;22;45350;-84
2023/10/23 09:51:41;;;;;;;;;0.00;0.00;;;;;12.75;100.00;100364.06;6366277;22;45292;-83
2023/10/23 09:54:17;;;;;;;;;0.00;0.00;;;;;12.82;100.00;100371.66;6367246;22;47080;-83
2023/10/23 09:56:53;;;;;;;;;0.00;0.00;;;;;12.83;100.00;100363.72;6365942;22;45313;-83
2023/10/23 09:59:35;;;;;;;;;;;;;;;;;;;;;
2023/10/23 10:02:03;;;;;;;;;0.00;0.00;;;;;12.87;100.00;100352.25;6360235;22;69778;-84
2023/10/23 10:04:50;;;;;;;;;0.00;0.00;;;;;12.93;100.00;100359.81;6365908;22;46504;-84
2023/10/23 10:07:24;;;;;;;;;0.00;0.00;;;;;12.93;100.00;100351.97;6367025;22;45477;-83
2023/10/23 10:09:50;;;;;;;;;0.00;0.00;;;;;12.93;100.00;100335.47;6367070;22;45305;-82
2023/10/23 10:12:23;;;;;;;;;0.00;0.00;;;;;12.95;100.00;100329.25;6366127;22;45582;-83
2023/10/23 10:14:49;;;;;;;;;0.00;0.00;;;;;13.02;100.00;100323.72;6365764;22;46864;-83
2023/10/23 10:17:19;;;;;;;;;0.00;0.00;;;;;13.10;100.00;100330.31;6367321;22;45354;-83
2023/10/23 10:19:45;;;;;;;;;0.00;0.00;;;;;13.19;100.00;100323.81;6366098;22;45245;-83
2023/10/23 10:22:21;;;;;;;;;0.00;0.00;;;;;13.28;100.00;100323.38;6365599;22;45425;-83
2023/10/23 10:24:50;;;;;;;;;0.00;0.00;;;;;13.30;100.00;100313.75;6365530;22;45252;-84
2023/10/23 10:27:16;;;;;;;;;0.00;0.00;;;;;13.40;100.00;100313.31;6339257;22;45701;-83
2023/10/23 10:29:42;;;;;;;;;0.00;0.00;;;;;13.45;100.00;100321.78;6339474;22;45373;-84
2023/10/23 10:32:10;;;;;;;;;0.00;0.00;;;;;13.45;100.00;100311.31;6367392;22;45265;-83
2023/10/23 10:34:48;;;;;;;;;0.00;0.00;;;;;13.49;100.00;100305.88;6366894;22;45211;-84
2023/10/23 10:37:16;;;;;;;;;0.00;0.00;;;;;13.48;100.00;100303.31;6365501;22;45372;-83
2023/10/23 10:39:50;;;;;;;;;4.00;4.00;;;;;13.50;100.00;100302.34;6392605;22;45428;-84
2023/10/23 10:42:25;;;;;;;;;0.00;0.00;;;;;13.42;100.00;100301.00;6365892;22;45412;-83
2023/10/23 10:45:14;;;;;;;;;0.00;0.00;;;;;13.45;100.00;100299.09;6366077;22;46494;-83
2023/10/23 10:47:42;;;;;;;;;0.00;0.00;;;;;13.42;100.00;100301.00;6365496;22;45926;-84
2023/10/23 10:50:10;;;;;;;;;0.00;0.00;;;;;13.41;100.00;100304.53;6365467;22;45409;-83
2023/10/23 10:52:38;;;;;;;;;0.00;0.00;;;;;13.33;100.00;100295.31;6367093;22;45327;-84
2023/10/23 10:55:25;;;;;;;;;0.00;0.00;;;;;13.35;100.00;100303.91;6367358;22;45641;-83
2023/10/23 10:57:52;;;;;;;;;0.00;0.00;;;;;13.29;100.00;100298.94;6350196;22;45216;-84
2023/10/23 11:00:28;;;;;;;;;;;;;;;;;;;;;
2023/10/23 11:02:55;;;;;;;;;0.00;0.00;;;;;13.26;100.00;100295.59;6365298;22;68693;-83
2023/10/23 11:05:20;;;;;;;;;0.00;0.00;;;;;13.22;100.00;100288.84;6366509;22;46043;-84
2023/10/23 11:07:49;;;;;;;;;0.00;0.00;;;;;13.20;100.00;100280.22;6365954;22;45339;-83
2023/10/23 11:10:22;;;;;;;;;0.00;0.00;;;;;13.15;100.00;100281.28;6339589;22;45256;-84
2023/10/23 11:12:50;;;;;;;;;0.00;0.00;;;;;13.11;100.00;100269.31;6367221;22;45352;-82
2023/10/23 11:15:18;;;;;;;;;0.00;0.00;;;;;13.06;100.00;100255.59;6340692;22;47219;-83
2023/10/23 11:17:51;;;;;;;;;0.00;0.00;;;;;13.05;100.00;100263.50;6393275;22;45284;-83
2023/10/23 11:20:17;;;;;;;;;0.00;0.00;;;;;12.97;100.00;100256.03;6368748;22;45257;-83
2023/10/23 11:22:43;;;;;;;;;0.00;0.00;;;;;12.96;100.00;100260.41;6368652;22;45439;-84
2023/10/23 11:25:12;;;;;;;;;0.00;0.00;;;;;12.94;100.00;100251.78;6366710;22;47114;-83
2023/10/23 11:27:38;;;;;;;;;0.00;0.00;;;;;12.96;100.00;100252.56;6369001;22;45343;-83